Time;durP1;ratioP1;P1;durP2;ratioP2;P2;SDS_P1;SDS_P2;PMS_P1;PMS_P2;Temp;Humidity;BMP_temperature;BMP_pressure;BME280_temperature;BME280_humidity;BME280_pressure;Samples;Min_cycle;Max_cycle;Signal;HPM_P1;HPM_P2
2024/01/13 00:02:13;;;;;;;20.27;10.00;;;4.20;99.90;;;;;;5091939;28;20028;-62
2024/01/13 00:04:38;;;;;;;28.20;10.55;;;4.20;99.90;;;;;;5092042;28;20059;-66
2024/01/13 00:07:04;;;;;;;21.05;11.45;;;4.20;99.90;;;;;;5091855;28;20040;-62
2024/01/13 00:09:30;;;;;;;19.13;10.20;;;4.20;99.90;;;;;;5092089;28;20033;-63
2024/01/13 00:11:55;;;;;;;23.35;10.65;;;4.20;99.90;;;;;;5092063;28;20036;-64
2024/01/13 00:14:21;;;;;;;21.15;10.35;;;4.20;99.90;;;;;;5092085;28;20036;-62
2024/01/13 00:16:46;;;;;;;22.17;10.82;;;4.20;99.90;;;;;;5092061;28;20024;-63
2024/01/13 00:19:12;;;;;;;25.88;11.20;;;4.20;99.90;;;;;;5091930;28;20033;-64
2024/01/13 00:21:38;;;;;;;26.30;10.90;;;4.20;99.90;;;;;;5091909;28;20025;-63
2024/01/13 00:24:04;;;;;;;22.75;10.35;;;4.20;99.90;;;;;;5091915;28;20166;-64
2024/01/13 00:26:30;;;;;;;27.13;10.45;;;4.20;99.90;;;;;;5091890;28;20025;-63
2024/01/13 00:28:55;;;;;;;25.10;10.93;;;4.20;99.90;;;;;;5091903;28;20043;-63
2024/01/13 00:31:21;;;;;;;24.17;11.15;;;4.20;99.90;;;;;;5090932;28;20021;-62
2024/01/13 00:33:47;;;;;;;23.38;10.48;;;4.20;99.90;;;;;;5091640;28;20020;-62
2024/01/13 00:36:12;;;;;;;27.50;11.38;;;4.20;99.90;;;;;;5091798;28;20059;-62
2024/01/13 00:38:38;;;;;;;22.38;9.98;;;4.20;99.90;;;;;;5095184;28;20036;-63
2024/01/13 00:41:05;;;;;;;21.60;9.50;;;4.30;99.90;;;;;;5095671;28;20035;-63
2024/01/13 00:43:30;;;;;;;27.63;11.05;;;4.30;99.90;;;;;;5095633;28;20025;-64
2024/01/13 00:45:56;;;;;;;23.08;10.93;;;4.30;99.90;;;;;;5095573;28;20116;-62
2024/01/13 00:48:22;;;;;;;22.00;10.20;;;4.20;99.90;;;;;;5095450;28;20060;-62
2024/01/13 00:50:47;;;;;;;23.90;10.68;;;4.20;99.90;;;;;;5095224;28;20503;-63
2024/01/13 00:53:13;;;;;;;24.75;10.48;;;4.20;99.90;;;;;;5095491;28;20024;-63
2024/01/13 00:55:38;;;;;;;27.63;12.70;;;4.20;99.90;;;;;;5095425;28;20449;-63
2024/01/13 00:58:04;;;;;;;22.23;10.38;;;4.30;99.90;;;;;;5095443;28;20032;-62
2024/01/13 01:00:30;;;;;;;30.33;11.73;;;4.30;99.90;;;;;;5095357;28;20103;-62
2024/01/13 01:02:55;;;;;;;24.08;10.70;;;4.30;99.90;;;;;;5095090;28;20046;-62
2024/01/13 01:05:21;;;;;;;23.58;10.13;;;4.30;99.90;;;;;;5095241;28;20047;-62
2024/01/13 01:07:47;;;;;;;24.80;10.75;;;4.30;99.90;;;;;;5095105;28;20037;-62
2024/01/13 01:10:13;;;;;;;25.65;11.23;;;4.30;99.90;;;;;;5095215;28;20080;-62
2024/01/13 01:12:39;;;;;;;27.48;11.50;;;4.30;99.90;;;;;;5095119;28;20047;-63
2024/01/13 01:15:05;;;;;;;33.10;11.25;;;4.30;99.90;;;;;;5095072;28;20054;-63
2024/01/13 01:17:31;;;;;;;28.02;11.90;;;4.30;99.90;;;;;;5095056;28;20058;-63
2024/01/13 01:19:56;;;;;;;24.05;11.63;;;4.30;99.90;;;;;;5094717;28;20036;-63
2024/01/13 01:22:22;;;;;;;28.40;12.32;;;4.30;99.90;;;;;;5094934;28;20020;-62
2024/01/13 01:24:48;;;;;;;25.35;11.63;;;4.30;99.90;;;;;;5094903;28;20029;-62
2024/01/13 01:27:13;;;;;;;29.17;12.02;;;4.30;99.90;;;;;;5094831;28;20037;-62
2024/01/13 01:29:39;;;;;;;26.55;11.70;;;4.20;99.90;;;;;;5094837;28;20025;-62
2024/01/13 01:32:05;;;;;;;26.52;11.98;;;4.30;99.90;;;;;;5094460;28;20032;-63
2024/01/13 01:34:30;;;;;;;22.48;11.02;;;4.30;99.90;;;;;;5094701;28;20447;-62
2024/01/13 01:36:56;;;;;;;23.75;11.23;;;4.30;99.90;;;;;;5094644;28;20050;-62
2024/01/13 01:39:22;;;;;;;28.27;11.90;;;4.30;99.90;;;;;;5094612;28;20044;-64
2024/01/13 01:41:47;;;;;;;25.38;11.02;;;4.30;99.90;;;;;;5094571;28;20035;-63
2024/01/13 01:44:13;;;;;;;31.08;12.25;;;4.20;99.90;;;;;;5094462;28;20040;-66
2024/01/13 01:46:39;;;;;;;25.95;10.60;;;4.20;99.90;;;;;;5094366;28;20032;-62
2024/01/13 01:49:06;;;;;;;31.77;11.90;;;4.20;99.90;;;;;;5093075;28;20055;-63
2024/01/13 01:51:32;;;;;;;26.85;11.35;;;4.20;99.90;;;;;;5094394;28;20039;-64
2024/01/13 01:53:59;;;;;;;31.63;12.55;;;4.20;99.90;;;;;;5094358;28;20056;-61
2024/01/13 01:56:31;;;;;;;25.90;11.63;;;4.20;99.90;;;;;;5094363;28;20028;-64
2024/01/13 01:58:57;;;;;;;25.67;11.47;;;4.20;99.90;;;;;;5094277;28;20013;-63
2024/01/13 02:01:23;;;;;;;24.02;10.45;;;4.20;99.90;;;;;;5094204;28;20259;-63
2024/01/13 02:03:49;;;;;;;24.80;11.20;;;4.20;99.90;;;;;;5093857;28;20024;-63
2024/01/13 02:06:16;;;;;;;28.45;10.63;;;4.20;99.90;;;;;;5094262;28;20025;-63
2024/01/13 02:08:42;;;;;;;25.45;10.30;;;4.20;99.90;;;;;;5092805;28;20054;-64
2024/01/13 02:11:11;;;;;;;21.38;9.57;;;4.30;99.90;;;;;;5094099;28;20077;-62
2024/01/13 02:13:38;;;;;;;23.70;9.55;;;4.30;99.90;;;;;;5093969;28;20033;-63
2024/01/13 02:16:06;;;;;;;23.23;9.93;;;4.30;99.90;;;;;;5093826;28;20031;-64
2024/01/13 02:18:32;;;;;;;21.42;8.82;;;4.30;99.90;;;;;;5093700;28;20024;-63
2024/01/13 02:20:57;;;;;;;19.05;8.95;;;4.30;99.90;;;;;;5092870;28;20039;-63
2024/01/13 02:23:23;;;;;;;22.80;9.35;;;4.30;99.90;;;;;;5093750;28;20060;-64
2024/01/13 02:25:49;;;;;;;17.40;8.40;;;4.30;99.90;;;;;;5093731;28;20039;-63
2024/01/13 02:28:16;;;;;;;19.08;8.02;;;4.30;99.90;;;;;;5093475;28;20037;-63
2024/01/13 02:30:41;;;;;;;18.30;8.15;;;4.30;99.90;;;;;;5093671;28;20032;-62
2024/01/13 02:33:07;;;;;;;18.45;8.65;;;4.30;99.90;;;;;;5093443;28;20036;-62
2024/01/13 02:35:33;;;;;;;15.65;7.80;;;4.30;99.90;;;;;;5093448;28;20032;-63
2024/01/13 02:37:58;;;;;;;16.52;7.85;;;4.30;99.90;;;;;;5093451;28;20028;-62
2024/01/13 02:40:24;;;;;;;17.90;9.00;;;4.30;99.90;;;;;;5092355;28;20086;-62
2024/01/13 02:42:49;;;;;;;23.65;10.18;;;4.30;99.90;;;;;;5093404;28;20073;-63
2024/01/13 02:45:15;;;;;;;19.33;9.65;;;4.30;99.90;;;;;;5093259;28;20040;-63
2024/01/13 02:47:45;;;;;;;21.45;9.25;;;4.30;99.90;;;;;;5092108;28;20055;-64
2024/01/13 02:50:13;;;;;;;21.73;9.73;;;4.30;99.90;;;;;;5093008;28;20041;-62
2024/01/13 02:52:40;;;;;;;21.63;9.73;;;4.30;99.90;;;;;;5093037;28;20032;-63
2024/01/13 02:55:06;;;;;;;21.30;9.93;;;4.30;99.90;;;;;;5093131;28;20021;-62
2024/01/13 02:57:32;;;;;;;23.83;11.00;;;4.30;99.90;;;;;;5093115;28;20051;-64
2024/01/13 02:59:57;;;;;;;20.23;9.75;;;4.30;99.90;;;;;;5091721;28;20037;-63
2024/01/13 03:02:23;;;;;;;24.73;9.50;;;4.30;99.90;;;;;;5092832;28;20025;-63
2024/01/13 03:04:49;;;;;;;18.60;9.70;;;4.30;99.90;;;;;;5092974;28;20084;-61
2024/01/13 03:07:14;;;;;;;20.52;9.27;;;4.30;99.90;;;;;;5092754;28;20032;-62
2024/01/13 03:09:40;;;;;;;20.20;9.82;;;4.20;99.90;;;;;;5092826;28;20032;-63
2024/01/13 03:12:06;;;;;;;17.67;9.18;;;4.20;99.90;;;;;;5092797;28;20027;-62
2024/01/13 03:14:32;;;;;;;20.15;9.15;;;4.20;99.90;;;;;;5092742;28;20024;-63
2024/01/13 03:16:57;;;;;;;16.33;8.65;;;4.20;99.90;;;;;;5092641;28;20037;-62
2024/01/13 03:19:23;;;;;;;22.30;11.00;;;4.20;99.90;;;;;;5092648;28;20039;-63
2024/01/13 03:21:49;;;;;;;19.25;10.20;;;4.10;99.90;;;;;;5092659;28;20052;-63
2024/01/13 03:24:15;;;;;;;20.85;9.60;;;4.10;99.90;;;;;;5092582;28;20438;-63
2024/01/13 03:26:40;;;;;;;20.98;9.77;;;4.10;99.90;;;;;;5092422;28;20028;-62
2024/01/13 03:29:06;;;;;;;19.65;10.25;;;4.10;99.90;;;;;;5092365;28;20049;-62
2024/01/13 03:31:31;;;;;;;19.50;10.35;;;4.10;99.90;;;;;;5092436;28;20046;-61
2024/01/13 03:33:57;;;;;;;24.30;10.52;;;4.10;99.90;;;;;;5092140;28;20034;-62
2024/01/13 03:36:23;;;;;;;20.27;10.15;;;4.10;99.90;;;;;;5092374;28;20031;-63
2024/01/13 03:38:48;;;;;;;20.77;10.18;;;4.10;99.90;;;;;;5092260;28;20040;-63
2024/01/13 03:41:17;;;;;;;19.33;10.32;;;4.00;99.90;;;;;;5091337;28;20596;-62
2024/01/13 03:43:42;;;;;;;22.58;10.90;;;4.10;99.90;;;;;;5092238;28;20020;-64
2024/01/13 03:46:08;;;;;;;20.35;10.70;;;4.10;99.90;;;;;;5092254;28;20104;-63
2024/01/13 03:48:34;;;;;;;21.42;10.45;;;4.10;99.90;;;;;;5092278;28;20033;-63
2024/01/13 03:50:59;;;;;;;20.77;10.32;;;4.10;99.90;;;;;;5092149;28;20044;-61
2024/01/13 03:53:25;;;;;;;21.48;10.77;;;4.10;99.90;;;;;;5092311;28;20048;-62
2024/01/13 03:55:51;;;;;;;23.00;11.38;;;4.10;99.90;;;;;;5092331;28;20028;-62
2024/01/13 03:58:16;;;;;;;22.75;11.30;;;4.10;99.90;;;;;;5092210;28;20020;-64
2024/01/13 04:00:42;;;;;;;21.83;10.77;;;4.10;99.90;;;;;;5092147;28;20037;-64
2024/01/13 04:03:08;;;;;;;25.08;12.05;;;4.20;99.90;;;;;;5091931;28;20033;-63
2024/01/13 04:05:34;;;;;;;22.55;9.85;;;4.10;99.90;;;;;;5092049;28;20033;-62
2024/01/13 04:08:00;;;;;;;23.33;11.52;;;4.20;99.90;;;;;;5091898;28;20029;-62
2024/01/13 04:10:25;;;;;;;24.38;12.15;;;4.10;99.90;;;;;;5092032;28;20088;-63
2024/01/13 04:12:51;;;;;;;21.30;11.40;;;4.20;99.90;;;;;;5094254;28;20025;-62
2024/01/13 04:15:17;;;;;;;19.92;11.00;;;4.20;99.90;;;;;;5096297;28;20036;-62
2024/01/13 04:17:42;;;;;;;22.52;10.90;;;4.10;99.90;;;;;;5096171;28;20031;-62
2024/01/13 04:20:08;;;;;;;20.73;10.25;;;4.10;99.90;;;;;;5096025;28;20021;-62
2024/01/13 04:22:34;;;;;;;22.05;11.20;;;4.20;99.90;;;;;;5096089;28;20505;-63
2024/01/13 04:24:59;;;;;;;17.60;9.73;;;4.10;99.90;;;;;;5095960;28;20024;-62
2024/01/13 04:27:25;;;;;;;19.67;9.88;;;4.20;99.90;;;;;;5095874;28;20059;-64
2024/01/13 04:29:51;;;;;;;18.92;9.77;;;4.20;99.90;;;;;;5095858;28;20029;-63
2024/01/13 04:32:16;;;;;;;22.83;9.80;;;4.20;99.90;;;;;;5095682;28;20028;-63
2024/01/13 04:34:42;;;;;;;20.33;10.38;;;4.20;99.90;;;;;;5094848;28;20071;-64
2024/01/13 04:37:07;;;;;;;21.55;10.38;;;4.20;99.90;;;;;;5095756;28;20032;-62
2024/01/13 04:39:33;;;;;;;19.63;9.60;;;4.20;99.90;;;;;;5095840;28;20033;-62
2024/01/13 04:41:58;;;;;;;19.35;9.50;;;4.20;99.90;;;;;;5095726;28;20038;-63
2024/01/13 04:44:24;;;;;;;15.75;9.30;;;4.20;99.90;;;;;;5095585;28;20048;-63
2024/01/13 04:46:50;;;;;;;26.98;9.43;;;4.20;99.90;;;;;;5095508;28;20071;-63
2024/01/13 04:49:15;;;;;;;18.85;9.15;;;4.10;99.90;;;;;;5095385;28;20049;-63
2024/01/13 04:51:41;;;;;;;15.93;8.65;;;4.20;99.90;;;;;;5095526;28;20028;-62
2024/01/13 04:54:07;;;;;;;18.25;8.77;;;4.20;99.90;;;;;;5095515;28;20047;-63
2024/01/13 04:56:33;;;;;;;14.52;8.50;;;4.20;99.90;;;;;;5094334;28;20492;-64
2024/01/13 04:58:58;;;;;;;17.00;8.10;;;4.20;99.90;;;;;;5095360;28;20021;-62
2024/01/13 05:01:24;;;;;;;14.98;7.10;;;4.20;99.90;;;;;;5095363;28;20009;-63
2024/01/13 05:03:50;;;;;;;15.20;7.32;;;4.20;99.90;;;;;;5095155;28;20086;-63
2024/01/13 05:06:15;;;;;;;14.70;6.90;;;4.20;99.90;;;;;;5095232;28;20072;-63
2024/01/13 05:08:42;;;;;;;14.07;7.10;;;4.20;99.90;;;;;;5095046;28;20025;-64
2024/01/13 05:11:08;;;;;;;15.88;7.38;;;4.20;99.90;;;;;;5095254;28;20372;-61
2024/01/13 05:13:33;;;;;;;12.98;6.45;;;4.20;99.90;;;;;;5095313;28;20048;-63
2024/01/13 05:15:59;;;;;;;13.45;6.57;;;4.20;99.90;;;;;;5095157;28;20486;-63
2024/01/13 05:18:26;;;;;;;11.60;6.35;;;4.20;99.90;;;;;;5095003;28;20075;-62
2024/01/13 05:20:52;;;;;;;11.52;5.85;;;4.30;99.90;;;;;;5094867;28;20025;-62
2024/01/13 05:23:18;;;;;;;10.18;5.45;;;4.30;99.90;;;;;;5094801;28;20024;-63
2024/01/13 05:25:43;;;;;;;13.13;6.05;;;4.30;99.90;;;;;;5094843;28;20032;-62
2024/01/13 05:28:09;;;;;;;10.70;5.90;;;4.30;99.90;;;;;;5094757;28;20028;-63
2024/01/13 05:30:35;;;;;;;8.82;4.78;;;4.30;99.90;;;;;;5094778;28;20025;-61
2024/01/13 05:33:01;;;;;;;9.63;4.82;;;4.30;99.90;;;;;;5094509;28;20017;-63
2024/01/13 05:35:27;;;;;;;9.73;4.25;;;4.30;99.90;;;;;;5094658;28;20033;-63
2024/01/13 05:37:53;;;;;;;8.05;4.10;;;4.30;99.90;;;;;;5094608;28;20036;-63
2024/01/13 05:40:21;;;;;;;9.60;4.47;;;4.30;99.90;;;;;;5094673;28;20047;-63
2024/01/13 05:42:47;;;;;;;7.22;3.78;;;4.30;99.90;;;;;;5094620;28;20028;-64
2024/01/13 05:45:12;;;;;;;8.25;4.45;;;4.30;99.90;;;;;;5094503;28;20047;-63
2024/01/13 05:47:38;;;;;;;7.95;4.65;;;4.30;99.90;;;;;;5094415;28;20028;-63
2024/01/13 05:50:06;;;;;;;6.80;3.75;;;4.30;99.90;;;;;;5094317;28;20044;-62
2024/01/13 05:52:32;;;;;;;9.30;4.15;;;4.30;99.90;;;;;;5094455;28;20032;-63
2024/01/13 05:54:58;;;;;;;6.93;3.83;;;4.30;99.90;;;;;;5093293;28;20017;-65
2024/01/13 05:57:23;;;;;;;8.68;4.13;;;4.30;99.90;;;;;;5094302;28;20035;-62
2024/01/13 05:59:50;;;;;;;9.75;3.92;;;4.30;99.90;;;;;;5094284;28;20043;-63
2024/01/13 06:02:16;;;;;;;8.75;3.75;;;4.30;99.90;;;;;;5094072;28;20104;-63
2024/01/13 06:04:42;;;;;;;8.00;3.85;;;4.40;99.90;;;;;;5094249;28;20037;-64
2024/01/13 06:07:08;;;;;;;7.30;4.47;;;4.40;99.90;;;;;;5094069;28;20029;-62
2024/01/13 06:09:33;;;;;;;12.27;4.70;;;4.30;99.90;;;;;;5093965;28;20063;-62
2024/01/13 06:11:59;;;;;;;8.95;4.45;;;4.40;99.90;;;;;;5094091;28;20028;-62
2024/01/13 06:14:25;;;;;;;7.60;4.07;;;4.40;99.90;;;;;;5094050;28;20092;-63
2024/01/13 06:16:50;;;;;;;9.32;4.95;;;4.40;99.90;;;;;;5093928;28;20025;-64
2024/01/13 06:19:16;;;;;;;13.30;5.22;;;4.40;99.90;;;;;;5093896;28;20028;-63
2024/01/13 06:21:43;;;;;;;13.35;5.85;;;4.40;99.90;;;;;;5093790;28;20055;-62
2024/01/13 06:24:11;;;;;;;11.43;5.85;;;4.40;99.90;;;;;;5093774;28;20025;-63
2024/01/13 06:26:41;;;;;;;11.10;5.68;;;4.40;99.90;;;;;;5093749;28;20029;-63
2024/01/13 06:29:07;;;;;;;11.98;6.25;;;4.40;99.90;;;;;;5093732;28;20021;-62
2024/01/13 06:31:33;;;;;;;13.57;6.68;;;4.40;99.90;;;;;;5093732;28;20105;-62
2024/01/13 06:33:58;;;;;;;12.65;6.53;;;4.30;99.90;;;;;;5093407;28;20021;-62
2024/01/13 06:36:24;;;;;;;13.95;7.15;;;4.30;99.90;;;;;;5092997;28;20033;-62
2024/01/13 06:38:50;;;;;;;17.45;8.60;;;4.30;99.90;;;;;;5093392;28;20024;-63
2024/01/13 06:41:15;;;;;;;16.63;7.32;;;4.30;99.90;;;;;;5093457;28;20051;-64
2024/01/13 06:43:41;;;;;;;19.02;8.80;;;4.30;99.90;;;;;;5093420;28;20115;-64
2024/01/13 06:46:07;;;;;;;21.20;9.10;;;4.30;99.90;;;;;;5093305;28;20028;-64
2024/01/13 06:48:33;;;;;;;19.50;9.18;;;4.30;99.90;;;;;;5093205;28;20066;-63
2024/01/13 06:50:59;;;;;;;21.65;9.77;;;4.30;99.90;;;;;;5093055;28;20052;-64
2024/01/13 06:53:24;;;;;;;25.10;11.07;;;4.30;99.90;;;;;;5092166;28;20043;-63
2024/01/13 06:55:50;;;;;;;21.75;9.60;;;4.30;99.90;;;;;;5093302;28;20029;-63
2024/01/13 06:58:16;;;;;;;20.92;10.00;;;4.30;99.90;;;;;;5093130;28;20025;-62
2024/01/13 07:00:41;;;;;;;24.73;10.57;;;4.30;99.90;;;;;;5093131;28;20040;-62
2024/01/13 07:03:07;;;;;;;23.42;10.82;;;4.30;99.90;;;;;;5092832;28;20037;-63
2024/01/13 07:05:33;;;;;;;30.55;12.13;;;4.30;99.90;;;;;;5093017;28;20035;-65
2024/01/13 07:08:00;;;;;;;25.95;11.70;;;4.30;99.90;;;;;;5091677;28;20040;-63
2024/01/13 07:10:29;;;;;;;27.65;11.63;;;4.30;99.90;;;;;;5092919;28;20048;-62
2024/01/13 07:12:56;;;;;;;26.42;11.63;;;4.30;99.90;;;;;;5092774;28;20031;-64
2024/01/13 07:15:22;;;;;;;26.15;10.65;;;4.30;99.90;;;;;;5092781;28;20024;-63
2024/01/13 07:17:47;;;;;;;27.15;12.07;;;4.30;99.90;;;;;;5091687;28;20060;-63
2024/01/13 07:20:13;;;;;;;26.63;12.35;;;4.20;99.90;;;;;;5092607;28;20043;-62
2024/01/13 07:22:39;;;;;;;24.85;12.77;;;4.20;99.90;;;;;;5092800;28;20037;-62
2024/01/13 07:25:06;;;;;;;29.98;12.50;;;4.20;99.90;;;;;;5092644;28;20027;-62
2024/01/13 07:27:32;;;;;;;28.58;12.50;;;4.20;99.90;;;;;;5092500;28;20028;-63
2024/01/13 07:29:59;;;;;;;33.25;13.68;;;4.30;99.90;;;;;;5092585;28;20021;-63
2024/01/13 07:32:25;;;;;;;34.15;14.50;;;4.30;99.90;;;;;;5091244;28;20025;-63
2024/01/13 07:34:50;;;;;;;35.38;14.93;;;4.30;99.90;;;;;;5073470;28;20043;-63
2024/01/13 07:37:16;;;;;;;29.33;13.93;;;4.20;99.90;;;;;;5052323;28;20322;-63
2024/01/13 07:39:44;;;;;;;31.95;14.57;;;4.20;99.90;;;;;;5052370;28;20229;-63
2024/01/13 07:42:09;;;;;;;32.60;15.10;;;4.20;99.90;;;;;;5052404;28;20041;-63
2024/01/13 07:44:35;;;;;;;32.67;14.15;;;4.20;99.90;;;;;;5052378;28;20031;-62
2024/01/13 07:47:03;;;;;;;31.42;13.07;;;4.20;99.90;;;;;;5051405;28;20034;-62
2024/01/13 07:49:29;;;;;;;34.42;14.45;;;4.20;99.90;;;;;;5052094;28;20427;-63
2024/01/13 07:51:56;;;;;;;31.40;13.63;;;4.20;99.90;;;;;;5052230;28;20021;-63
2024/01/13 07:54:25;;;;;;;32.17;14.20;;;4.30;99.90;;;;;;5052233;28;20030;-64
2024/01/13 07:56:52;;;;;;;29.20;13.25;;;4.30;99.90;;;;;;5052203;28;20161;-64
2024/01/13 07:59:17;;;;;;;29.50;13.45;;;4.30;99.90;;;;;;5052288;28;20022;-65
2024/01/13 08:01:44;;;;;;;34.47;14.93;;;4.30;99.90;;;;;;5051903;28;20036;-66
2024/01/13 08:04:11;;;;;;;31.58;14.55;;;4.30;99.90;;;;;;5052010;28;20036;-63
2024/01/13 08:06:36;;;;;;;30.65;13.43;;;4.40;99.90;;;;;;5051941;28;20033;-64
2024/01/13 08:09:06;;;;;;;29.55;14.02;;;4.30;99.90;;;;;;5052087;28;20032;-65
2024/01/13 08:11:32;;;;;;;31.40;13.85;;;4.30;99.90;;;;;;5052042;28;20022;-62
2024/01/13 08:13:58;;;;;;;29.05;13.70;;;4.30;99.90;;;;;;5052033;28;20590;-64
2024/01/13 08:16:23;;;;;;;34.28;14.27;;;4.30;99.90;;;;;;5052023;28;20026;-62
2024/01/13 08:18:49;;;;;;;30.77;14.50;;;4.30;99.90;;;;;;5051883;28;20034;-61
2024/01/13 08:21:14;;;;;;;29.95;13.27;;;4.30;99.90;;;;;;5051886;28;20056;-64
2024/01/13 08:23:41;;;;;;;30.50;14.07;;;4.30;99.90;;;;;;5051899;28;20083;-62
2024/01/13 08:26:07;;;;;;;36.13;14.48;;;4.30;99.90;;;;;;5051904;28;20030;-63
2024/01/13 08:28:33;;;;;;;30.77;13.38;;;4.30;99.90;;;;;;5051855;28;20033;-61
2024/01/13 08:30:59;;;;;;;33.30;14.63;;;4.30;99.90;;;;;;5051805;28;20052;-62
2024/01/13 08:33:24;;;;;;;31.05;14.02;;;4.30;99.90;;;;;;5051532;28;20404;-61
2024/01/13 08:35:50;;;;;;;34.00;14.18;;;4.30;99.90;;;;;;5051867;28;20053;-61
2024/01/13 08:38:16;;;;;;;28.85;13.50;;;4.40;99.90;;;;;;5051782;28;20106;-62
2024/01/13 08:40:42;;;;;;;34.08;14.60;;;4.40;99.90;;;;;;5051847;28;20093;-62
2024/01/13 08:43:08;;;;;;;32.47;13.98;;;4.40;99.90;;;;;;5051752;28;20399;-62
2024/01/13 08:45:35;;;;;;;31.45;13.90;;;4.40;99.90;;;;;;5051691;28;20053;-63
2024/01/13 08:48:00;;;;;;;27.70;13.40;;;4.40;99.90;;;;;;5051671;28;20032;-62
2024/01/13 08:50:26;;;;;;;31.73;14.18;;;4.40;99.90;;;;;;5051567;28;20054;-64
2024/01/13 08:52:55;;;;;;;37.08;14.25;;;4.40;99.90;;;;;;5051758;28;20171;-62
2024/01/13 08:55:24;;;;;;;37.65;15.73;;;4.40;99.90;;;;;;5051642;28;20009;-63
2024/01/13 08:57:50;;;;;;;34.15;14.02;;;4.40;99.90;;;;;;5052015;28;20041;-63
2024/01/13 09:00:16;;;;;;;32.30;14.73;;;4.40;99.90;;;;;;5055268;28;20030;-64
2024/01/13 09:02:42;;;;;;;35.00;14.63;;;4.40;99.90;;;;;;5055138;28;20026;-63
2024/01/13 09:05:08;;;;;;;34.22;13.13;;;4.40;99.90;;;;;;5055309;28;20017;-62
2024/01/13 09:07:35;;;;;;;33.38;14.35;;;4.40;99.90;;;;;;5055065;28;20037;-64
2024/01/13 09:10:01;;;;;;;33.47;15.25;;;4.40;99.90;;;;;;5055152;28;20022;-63
2024/01/13 09:12:26;;;;;;;33.65;14.13;;;4.40;99.90;;;;;;5055198;28;20028;-61
2024/01/13 09:14:52;;;;;;;32.25;14.00;;;4.40;99.90;;;;;;5055096;28;20029;-62
2024/01/13 09:17:17;;;;;;;33.88;14.30;;;4.40;99.90;;;;;;5055027;28;20036;-62
2024/01/13 09:19:43;;;;;;;35.33;15.50;;;4.40;99.90;;;;;;5054885;28;20034;-61
2024/01/13 09:22:09;;;;;;;38.80;15.50;;;4.40;99.90;;;;;;5055061;28;20025;-62
2024/01/13 09:24:34;;;;;;;35.38;13.93;;;4.40;99.90;;;;;;5054981;28;20026;-62
2024/01/13 09:27:00;;;;;;;35.55;16.38;;;4.40;99.90;;;;;;5053963;28;20030;-62
2024/01/13 09:29:26;;;;;;;35.13;14.25;;;4.40;99.90;;;;;;5054780;28;20040;-63
2024/01/13 09:31:52;;;;;;;36.38;15.40;;;4.40;99.90;;;;;;5054688;28;20049;-63
2024/01/13 09:34:18;;;;;;;36.20;14.80;;;4.40;99.90;;;;;;5054713;28;20032;-63
2024/01/13 09:36:44;;;;;;;38.47;16.55;;;4.40;99.90;;;;;;5054659;28;20025;-63
2024/01/13 09:39:11;;;;;;;35.67;15.52;;;4.50;99.90;;;;;;5054656;28;20021;-62
2024/01/13 09:41:47;;;;;;;34.17;15.07;;;4.50;99.90;;;;;;5054616;28;20029;-63
2024/01/13 09:44:19;;;;;;;33.70;13.65;;;4.50;99.90;;;;;;5054536;28;20030;-62
2024/01/13 09:46:45;;;;;;;31.98;14.40;;;4.50;99.90;;;;;;5054502;28;20139;-61
2024/01/13 09:49:13;;;;;;;34.03;13.68;;;4.40;99.90;;;;;;5054331;28;20050;-61
2024/01/13 09:51:40;;;;;;;37.38;15.15;;;4.50;99.90;;;;;;5054483;28;20009;-61
2024/01/13 09:54:19;;;;;;;35.55;15.43;;;4.50;99.90;;;;;;5054310;28;20044;-63
2024/01/13 09:56:46;;;;;;;35.35;13.77;;;4.50;99.90;;;;;;5054250;28;20076;-62
2024/01/13 09:59:12;;;;;;;33.95;14.18;;;4.50;99.90;;;;;;5054300;28;20089;-63
2024/01/13 10:01:39;;;;;;;31.20;13.80;;;4.60;99.90;;;;;;5054301;28;20017;-62
2024/01/13 10:04:05;;;;;;;37.15;14.15;;;4.50;99.90;;;;;;5052889;28;20022;-62
2024/01/13 10:06:32;;;;;;;35.53;14.98;;;4.50;99.90;;;;;;5054139;28;20072;-64
2024/01/13 10:08:58;;;;;;;43.80;18.02;;;4.50;99.90;;;;;;5053782;28;20093;-62
2024/01/13 10:11:23;;;;;;;38.78;16.80;;;4.50;99.90;;;;;;5053243;28;20029;-62
2024/01/13 10:14:02;;;;;;;38.90;16.38;;;4.50;99.90;;;;;;5054095;28;20034;-62
2024/01/13 10:16:30;;;;;;;35.65;16.15;;;4.50;99.90;;;;;;5053942;28;20021;-63
2024/01/13 10:19:05;;;;;;;37.10;14.60;;;4.50;99.90;;;;;;5053981;28;20092;-62
2024/01/13 10:21:31;;;;;;;31.20;13.32;;;4.60;99.90;;;;;;5053821;28;20059;-62
2024/01/13 10:23:59;;;;;;;37.60;15.85;;;4.60;99.90;;;;;;5053832;28;20017;-62
2024/01/13 10:26:25;;;;;;;31.92;14.13;;;4.60;99.90;;;;;;5053800;28;20105;-63
2024/01/13 10:28:51;;;;;;;31.13;13.65;;;4.60;99.90;;;;;;5053561;28;20018;-62
2024/01/13 10:31:20;;;;;;;34.50;15.20;;;4.60;99.90;;;;;;5053716;28;20395;-63
2024/01/13 10:33:47;;;;;;;39.78;16.23;;;4.60;99.90;;;;;;5053491;28;20025;-62
2024/01/13 10:36:19;;;;;;;40.22;18.10;;;4.60;99.90;;;;;;5053543;28;20037;-62
2024/01/13 10:38:44;;;;;;;36.67;14.50;;;4.70;99.90;;;;;;5053534;28;20030;-62
2024/01/13 10:41:11;;;;;;;32.78;15.45;;;4.70;99.90;;;;;;5052459;28;20048;-64
2024/01/13 10:43:46;;;;;;;34.90;13.95;;;4.60;99.90;;;;;;5053443;28;20022;-61
2024/01/13 10:46:13;;;;;;;35.72;15.50;;;4.60;99.90;;;;;;5053423;28;20052;-63
2024/01/13 10:48:43;;;;;;;31.80;14.10;;;4.60;99.90;;;;;;5053244;28;20029;-62
2024/01/13 10:51:37;;;;;;;37.15;13.98;;;4.60;99.90;;;;;;5053200;28;20109;-62
2024/01/13 10:54:04;;;;;;;27.95;13.65;;;4.70;99.90;;;;;;5052639;28;20034;-62
2024/01/13 10:56:31;;;;;;;30.48;12.65;;;4.70;99.90;;;;;;5053253;28;20037;-62
2024/01/13 10:58:57;;;;;;;30.23;12.70;;;4.70;99.90;;;;;;5053144;28;20029;-62
2024/01/13 11:01:24;;;;;;;34.63;14.88;;;4.70;99.90;;;;;;5053073;28;20044;-62
2024/01/13 11:03:51;;;;;;;34.35;14.77;;;4.70;99.90;;;;;;5052798;28;20049;-64
2024/01/13 11:06:17;;;;;;;28.25;12.38;;;4.70;99.90;;;;;;5053044;28;20017;-62
2024/01/13 11:08:46;;;;;;;26.00;13.50;;;4.70;99.90;;;;;;5052881;28;20025;-63
2024/01/13 11:11:18;;;;;;;37.85;15.75;;;4.70;99.90;;;;;;5053060;28;20037;-62
2024/01/13 11:13:48;;;;;;;30.60;12.93;;;4.70;99.90;;;;;;5052819;28;20021;-62
2024/01/13 11:16:18;;;;;;;29.80;13.93;;;4.70;99.90;;;;;;5052896;28;20351;-62
2024/01/13 11:18:50;;;;;;;25.85;12.80;;;4.70;99.90;;;;;;5052749;28;20032;-62
2024/01/13 11:21:17;;;;;;;27.48;12.30;;;4.70;99.90;;;;;;5051497;28;20124;-63
2024/01/13 11:23:51;;;;;;;29.75;12.93;;;4.70;99.90;;;;;;5052772;28;20033;-62
2024/01/13 11:26:22;;;;;;;32.55;13.65;;;4.70;99.90;;;;;;5052617;28;20053;-62
2024/01/13 11:28:53;;;;;;;39.13;18.65;;;4.70;99.90;;;;;;5052505;28;20013;-61
2024/01/13 11:31:39;;;;;;;30.35;11.35;;;4.70;99.90;;;;;;5052678;28;20261;-62
2024/01/13 11:34:07;;;;;;;29.48;12.90;;;4.70;99.90;;;;;;5052349;28;20018;-63
2024/01/13 11:36:33;;;;;;;30.75;15.23;;;4.70;99.90;;;;;;5052483;28;20021;-63
2024/01/13 11:39:00;;;;;;;30.45;14.57;;;4.70;99.90;;;;;;5052335;28;20025;-64
2024/01/13 11:41:39;;;;;;;27.27;12.38;;;4.70;99.90;;;;;;5052390;28;20069;-62
2024/01/13 11:44:08;;;;;;;25.67;12.38;;;4.70;99.90;;;;;;5052449;28;20021;-63
2024/01/13 11:46:38;;;;;;;23.50;10.52;;;4.70;99.90;;;;;;5052354;28;20030;-63
2024/01/13 11:49:07;;;;;;;23.85;10.80;;;4.80;99.90;;;;;;5052012;28;20215;-62
2024/01/13 11:52:01;;;;;;;26.33;12.50;;;4.80;99.90;;;;;;5052378;28;20088;-64
2024/01/13 11:54:28;;;;;;;25.02;11.80;;;4.80;99.90;;;;;;5051993;28;20093;-63
2024/01/13 11:56:54;;;;;;;26.85;12.45;;;4.80;99.90;;;;;;5052294;28;20093;-62
2024/01/13 11:59:20;;;;;;;23.77;10.55;;;4.70;99.90;;;;;;5052245;28;20029;-63
2024/01/13 12:01:46;;;;;;;24.05;11.82;;;4.80;99.90;;;;;;5051968;28;20096;-63
2024/01/13 12:04:12;;;;;;;23.00;10.75;;;4.70;99.90;;;;;;5052168;28;20028;-63
2024/01/13 12:06:40;;;;;;;26.15;11.32;;;4.70;99.90;;;;;;5052131;28;20022;-63
2024/01/13 12:09:06;;;;;;;23.83;11.65;;;4.70;99.90;;;;;;5052166;28;20056;-63
2024/01/13 12:11:32;;;;;;;24.67;11.65;;;4.70;99.90;;;;;;5052178;28;20028;-62
2024/01/13 12:13:58;;;;;;;26.67;11.40;;;4.70;99.90;;;;;;5052059;28;20045;-64
2024/01/13 12:16:23;;;;;;;25.60;12.25;;;4.70;99.90;;;;;;5052085;28;20068;-63
2024/01/13 12:18:49;;;;;;;22.88;10.98;;;4.70;99.90;;;;;;5052022;28;20045;-62
2024/01/13 12:21:15;;;;;;;24.73;11.40;;;4.70;99.90;;;;;;5051922;28;20033;-62
2024/01/13 12:23:42;;;;;;;23.83;10.68;;;4.70;99.90;;;;;;5052009;28;20034;-63
2024/01/13 12:26:07;;;;;;;22.90;8.65;;;4.70;99.90;;;;;;5052035;28;20029;-62
2024/01/13 12:28:33;;;;;;;22.30;10.65;;;4.80;99.90;;;;;;5051839;28;20025;-63
2024/01/13 12:31:03;;;;;;;22.83;9.68;;;4.80;99.90;;;;;;5051904;28;20056;-64
2024/01/13 12:33:31;;;;;;;21.02;9.52;;;4.80;99.90;;;;;;5053285;28;20043;-62
2024/01/13 12:35:58;;;;;;;22.55;9.18;;;4.80;99.90;;;;;;5055930;28;20017;-63
2024/01/13 12:38:26;;;;;;;21.00;9.40;;;4.80;99.90;;;;;;5054691;28;20029;-61